createdAt,value
2018-10-16T00:02:26.199Z,7.93
2018-10-16T00:04:59.604Z,13.73
2018-10-16T00:07:31.299Z,10.40
2018-10-16T00:10:02.630Z,9.97
2018-10-16T00:12:34.002Z,8.30
2018-10-16T00:15:05.375Z,9.47
2018-10-16T00:17:37.001Z,10.50
2018-10-16T00:20:09.433Z,9.40
2018-10-16T00:22:41.611Z,9.90
2018-10-16T00:25:18.248Z,8.93
2018-10-16T00:27:49.667Z,7.87
2018-10-16T00:30:21.208Z,9.77
2018-10-16T00:32:52.573Z,8.97
2018-10-16T00:35:24.018Z,8.90
2018-10-16T00:37:55.372Z,9.00
2018-10-16T00:40:27.197Z,11.30
2018-10-16T00:42:58.530Z,9.23
2018-10-16T00:45:30.587Z,10.03
2018-10-16T00:48:02.774Z,10.73
2018-10-16T00:50:34.770Z,9.47
2018-10-16T00:53:06.452Z,10.10
2018-10-16T00:55:37.951Z,9.10
2018-10-16T00:58:09.545Z,7.63
2018-10-16T01:00:40.866Z,10.33
2018-10-16T01:03:12.179Z,9.77
2018-10-16T01:05:43.866Z,11.30
2018-10-16T01:08:15.210Z,9.27
2018-10-16T01:10:47.198Z,10.87
2018-10-16T01:13:18.845Z,10.10
2018-10-16T01:15:50.228Z,10.13
2018-10-16T01:18:21.570Z,10.77
2018-10-16T01:20:53.127Z,8.40
2018-10-16T01:23:24.470Z,10.67
2018-10-16T01:25:56.129Z,13.70
2018-10-16T01:28:27.670Z,9.20
2018-10-16T01:30:59.384Z,10.90
2018-10-16T01:33:33.436Z,11.60
2018-10-16T01:36:05.290Z,8.47
2018-10-16T01:38:36.566Z,7.90
2018-10-16T01:41:08.763Z,9.37
2018-10-16T01:43:41.005Z,10.53
2018-10-16T01:46:12.329Z,10.80
2018-10-16T01:48:43.682Z,10.27
2018-10-16T01:51:15.008Z,10.97
2018-10-16T01:53:46.305Z,10.70
2018-10-16T01:56:17.662Z,8.97
2018-10-16T01:58:49.131Z,10.47
2018-10-16T02:01:21.226Z,11.03
2018-10-16T02:03:52.896Z,11.47
2018-10-16T02:06:24.444Z,10.03
2018-10-16T02:08:57.562Z,9.40
2018-10-16T02:11:31.099Z,12.77
2018-10-16T02:14:03.070Z,9.70
2018-10-16T02:16:34.403Z,9.77
2018-10-16T02:19:05.723Z,9.37
2018-10-16T02:21:37.180Z,10.40
2018-10-16T02:24:11.086Z,8.47
2018-10-16T02:26:42.411Z,10.70
2018-10-16T02:29:13.736Z,8.53
2018-10-16T02:31:45.041Z,10.00
2018-10-16T02:34:16.728Z,11.07
2018-10-16T02:36:48.040Z,9.30
2018-10-16T02:39:20.548Z,10.83
2018-10-16T02:41:52.220Z,9.50
2018-10-16T02:44:23.529Z,10.60
2018-10-16T02:46:55.168Z,10.47
2018-10-16T02:49:26.758Z,10.83
2018-10-16T02:51:58.455Z,9.03
2018-10-16T02:54:29.816Z,11.77
2018-10-16T02:57:01.123Z,7.67
2018-10-16T02:59:32.478Z,12.87
2018-10-16T03:02:04.284Z,8.90
2018-10-16T03:04:35.611Z,9.50
2018-10-16T03:07:07.357Z,10.10
2018-10-16T03:09:40.265Z,10.73
2018-10-16T03:12:12.229Z,9.40
2018-10-16T03:14:44.226Z,9.27
2018-10-16T03:17:15.824Z,11.70
2018-10-16T03:19:47.700Z,9.23
2018-10-16T03:22:19.872Z,9.67
2018-10-16T03:24:51.619Z,8.83
2018-10-16T03:27:22.979Z,9.67
2018-10-16T03:29:54.325Z,13.00
2018-10-16T03:32:25.647Z,10.50
2018-10-16T03:34:57.020Z,12.33
2018-10-16T03:37:28.343Z,8.37
2018-10-16T03:39:59.717Z,8.53
2018-10-16T03:42:31.029Z,8.63
2018-10-16T03:45:02.595Z,10.23
2018-10-16T03:47:34.007Z,12.67
2018-10-16T03:50:05.755Z,9.43
2018-10-16T03:52:37.390Z,9.40
2018-10-16T03:55:09.161Z,9.53
2018-10-16T03:57:50.212Z,11.03
2018-10-16T04:00:23.257Z,10.93
2018-10-16T04:02:53.508Z,10.70
2018-10-16T04:05:24.833Z,9.50
2018-10-16T04:07:56.965Z,12.97
2018-10-16T04:10:28.280Z,9.90
2018-10-16T04:12:59.831Z,8.07
2018-10-16T04:15:31.183Z,10.67
2018-10-16T04:18:02.809Z,9.93
2018-10-16T04:20:34.673Z,10.40
2018-10-16T04:23:06.099Z,9.87
2018-10-16T04:25:37.408Z,9.10
2018-10-16T04:28:09.075Z,8.47
2018-10-16T04:30:40.809Z,9.43
2018-10-16T04:33:12.591Z,9.53
2018-10-16T04:35:43.910Z,8.73
2018-10-16T04:38:16.460Z,9.50
2018-10-16T04:40:47.993Z,17.27
2018-10-16T04:43:19.691Z,9.03
2018-10-16T04:45:51.025Z,7.50
2018-10-16T04:48:23.341Z,9.73
2018-10-16T04:50:54.690Z,8.87
2018-10-16T04:53:27.149Z,10.77
2018-10-16T04:55:58.484Z,9.83
2018-10-16T04:58:30.422Z,12.00
2018-10-16T05:01:01.792Z,9.33
2018-10-16T05:03:33.474Z,9.37
2018-10-16T05:06:04.839Z,9.30
2018-10-16T05:08:36.316Z,12.33
2018-10-16T05:11:08.156Z,9.47
2018-10-16T05:13:39.468Z,10.40
2018-10-16T05:16:10.893Z,17.73
2018-10-16T05:18:42.312Z,10.93
2018-10-16T05:21:13.837Z,8.43
2018-10-16T05:23:45.172Z,9.00
2018-10-16T05:26:16.881Z,9.60
2018-10-16T05:28:48.216Z,11.00
2018-10-16T05:31:20.235Z,9.00
2018-10-16T05:33:51.440Z,10.00
2018-10-16T05:36:22.748Z,10.20
2018-10-16T05:38:54.086Z,10.60
2018-10-16T05:41:25.423Z,10.13
2018-10-16T05:43:56.728Z,12.90
2018-10-16T05:46:28.396Z,9.53
2018-10-16T05:49:00.070Z,9.73
2018-10-16T05:51:31.445Z,13.07
2018-10-16T05:54:03.264Z,18.63
2018-10-16T05:56:34.583Z,9.23
2018-10-16T05:59:05.913Z,10.57
2018-10-16T06:01:37.242Z,9.40
2018-10-16T06:04:09.067Z,11.93
2018-10-16T06:06:41.031Z,10.50
2018-10-16T06:09:12.743Z,13.27
2018-10-16T06:11:44.175Z,13.43
2018-10-16T06:14:15.603Z,12.17
2018-10-16T06:16:48.258Z,19.67
2018-10-16T06:19:19.582Z,9.60
2018-10-16T06:21:50.943Z,9.50
2018-10-16T06:24:22.566Z,11.80
2018-10-16T06:26:54.324Z,10.60
2018-10-16T06:29:28.867Z,10.63
2018-10-16T06:32:00.201Z,7.63
2018-10-16T06:34:31.804Z,10.20
2018-10-16T06:37:04.291Z,10.13
2018-10-16T06:39:36.044Z,9.07
2018-10-16T06:42:07.572Z,8.47
2018-10-16T06:44:38.948Z,11.30
2018-10-16T06:47:14.790Z,10.53
2018-10-16T06:49:48.142Z,9.33
2018-10-16T06:52:25.476Z,9.90
2018-10-16T06:54:59.323Z,12.83
2018-10-16T06:57:32.895Z,13.87
2018-10-16T07:00:08.134Z,10.43
2018-10-16T07:02:43.456Z,12.40
2018-10-16T07:05:17.547Z,11.83
2018-10-16T07:07:52.420Z,14.70
2018-10-16T07:10:28.533Z,11.83
2018-10-16T07:13:02.822Z,12.77
2018-10-16T07:15:34.724Z,12.53
2018-10-16T07:18:06.709Z,13.20
2018-10-16T07:20:39.235Z,12.10
2018-10-16T07:23:11.660Z,12.90
2018-10-16T07:25:43.137Z,20.33
2018-10-16T07:28:14.838Z,10.27
2018-10-16T07:30:46.420Z,15.60
2018-10-16T07:33:19.362Z,13.03
2018-10-16T07:35:51.271Z,24.20
2018-10-16T07:38:23.168Z,19.07
2018-10-16T07:40:54.759Z,17.03
2018-10-16T07:43:27.268Z,14.87
2018-10-16T07:45:59.134Z,11.83
2018-10-16T07:48:30.761Z,15.23
2018-10-16T07:51:02.386Z,19.00
2018-10-16T07:53:38.028Z,9.70
2018-10-16T07:56:10.241Z,15.40
2018-10-16T07:58:42.218Z,9.40
2018-10-16T08:01:16.890Z,10.57
2018-10-16T08:03:48.676Z,21.73
2018-10-16T08:06:20.522Z,9.93
2018-10-16T08:08:52.361Z,10.03
2018-10-16T08:11:24.519Z,11.87
2018-10-16T08:13:56.373Z,10.20
2018-10-16T08:16:29.331Z,8.80
2018-10-16T08:19:02.013Z,12.67
2018-10-16T08:21:33.856Z,13.80
2018-10-16T08:24:06.511Z,18.10
2018-10-16T08:26:38.740Z,12.87
2018-10-16T08:29:10.921Z,8.93
2018-10-16T08:31:42.953Z,13.33
2018-10-16T08:34:15.155Z,14.17
2018-10-16T08:36:47.177Z,13.10
2018-10-16T08:39:35.953Z,10.83
2018-10-16T08:43:05.603Z,15.50
2018-10-16T08:46:30.776Z,9.90
2018-10-16T08:49:55.542Z,12.13
2018-10-16T08:52:28.012Z,11.77
2018-10-16T08:55:00.449Z,14.53
2018-10-16T08:57:32.667Z,12.47
2018-10-16T09:00:04.589Z,13.47
2018-10-16T09:02:36.661Z,10.20
2018-10-16T09:05:09.667Z,10.73
2018-10-16T09:07:41.670Z,13.47
2018-10-16T09:10:14.017Z,8.90
2018-10-16T09:12:47.130Z,9.77
2018-10-16T09:15:22.217Z,12.77
2018-10-16T09:17:54.717Z,14.13
2018-10-16T09:20:26.798Z,11.47
2018-10-16T09:22:58.813Z,11.87
2018-10-16T09:25:30.910Z,9.73
2018-10-16T09:28:03.180Z,12.57
2018-10-16T09:30:34.834Z,19.70
2018-10-16T09:33:06.179Z,13.43
2018-10-16T09:35:37.884Z,13.30
2018-10-16T09:38:09.809Z,16.50
2018-10-16T09:40:44.226Z,11.07
2018-10-16T09:43:15.735Z,12.97
2018-10-16T09:45:47.075Z,9.50
2018-10-16T09:48:18.407Z,9.57
2018-10-16T09:50:49.787Z,12.87
2018-10-16T09:53:21.143Z,11.27
2018-10-16T09:55:52.477Z,8.97
2018-10-16T09:58:23.815Z,11.13
2018-10-16T10:01:12.551Z,8.33
2018-10-16T10:03:44.081Z,7.73
2018-10-16T10:06:15.416Z,11.63
2018-10-16T10:08:46.773Z,11.90
2018-10-16T10:11:18.259Z,12.03
2018-10-16T10:13:49.591Z,14.90
2018-10-16T10:16:20.946Z,10.37
2018-10-16T10:18:52.379Z,8.67
2018-10-16T10:21:23.929Z,10.53
2018-10-16T10:23:55.343Z,9.50
2018-10-16T10:26:27.879Z,10.50
2018-10-16T10:28:59.449Z,9.60
2018-10-16T10:31:31.075Z,10.13
2018-10-16T10:34:02.639Z,12.37
2018-10-16T10:36:36.397Z,9.00
2018-10-16T10:39:12.021Z,6.67
2018-10-16T10:41:43.781Z,7.40
2018-10-16T10:44:15.168Z,9.83
2018-10-16T10:46:46.531Z,6.83
2018-10-16T10:49:19.644Z,7.70
2018-10-16T10:51:51.537Z,8.23
2018-10-16T10:54:24.249Z,9.60
2018-10-16T10:56:57.371Z,9.30
2018-10-16T10:59:29.959Z,8.23
2018-10-16T11:02:02.188Z,8.77
2018-10-16T11:04:34.243Z,7.00
2018-10-16T11:07:06.273Z,7.97
2018-10-16T11:09:38.935Z,6.20
2018-10-16T11:12:10.804Z,8.30
2018-10-16T11:14:42.801Z,10.40
2018-10-16T11:17:15.979Z,8.87
2018-10-16T11:19:48.159Z,7.73
2018-10-16T11:22:20.363Z,8.93
2018-10-16T11:24:52.489Z,6.60
2018-10-16T11:27:24.993Z,8.10
2018-10-16T11:29:56.630Z,7.50
2018-10-16T11:32:28.605Z,7.20
2018-10-16T11:35:00.018Z,7.77
2018-10-16T11:37:34.113Z,5.93
2018-10-16T11:40:05.554Z,7.33
2018-10-16T11:42:36.939Z,8.20
2018-10-16T11:45:09.144Z,6.60
2018-10-16T11:47:40.748Z,9.23
2018-10-16T11:50:13.039Z,6.30
2018-10-16T11:52:44.343Z,7.73
2018-10-16T11:55:15.772Z,8.47
2018-10-16T11:57:47.105Z,9.10
2018-10-16T12:00:19.225Z,8.10
2018-10-16T12:02:50.915Z,6.03
2018-10-16T12:05:22.203Z,5.70
2018-10-16T12:07:54.465Z,6.03
2018-10-16T12:10:25.861Z,7.00
2018-10-16T12:12:57.168Z,5.60
2018-10-16T12:15:29.136Z,6.20
2018-10-16T12:18:17.242Z,7.03
2018-10-16T12:21:13.478Z,8.50
2018-10-16T12:23:44.893Z,11.30
2018-10-16T12:26:19.588Z,8.77
2018-10-16T12:28:51.076Z,5.20
2018-10-16T12:31:23.181Z,6.77
2018-10-16T12:33:58.037Z,9.07
2018-10-16T12:36:29.411Z,7.77
2018-10-16T12:39:01.135Z,6.70
2018-10-16T12:41:32.780Z,7.27
2018-10-16T12:44:04.121Z,9.63
2018-10-16T12:46:35.440Z,6.70
2018-10-16T12:49:09.451Z,7.80
2018-10-16T12:51:40.846Z,6.23
2018-10-16T12:54:12.161Z,5.97
2018-10-16T12:56:43.470Z,6.93
2018-10-16T12:59:14.901Z,6.17
2018-10-16T13:01:46.134Z,7.70
2018-10-16T13:04:17.485Z,6.37
2018-10-16T13:06:48.809Z,5.47
2018-10-16T13:09:20.123Z,6.03
2018-10-16T13:11:51.709Z,7.40
2018-10-16T13:14:23.051Z,6.67
2018-10-16T13:16:54.444Z,8.70
2018-10-16T13:19:27.754Z,6.23
2018-10-16T13:21:59.109Z,7.00
2018-10-16T13:24:30.660Z,4.93
2018-10-16T13:27:02.245Z,4.77
2018-10-16T13:29:33.780Z,5.97
2018-10-16T13:32:05.428Z,6.77
2018-10-16T13:34:36.936Z,8.63
2018-10-16T13:37:09.353Z,7.57
2018-10-16T13:39:41.033Z,6.50
2018-10-16T13:42:12.374Z,6.97
2018-10-16T13:44:43.859Z,6.30
2018-10-16T13:47:15.176Z,4.93
2018-10-16T13:49:46.557Z,5.53
2018-10-16T13:52:18.057Z,10.97
2018-10-16T13:54:49.374Z,5.70
2018-10-16T13:57:21.014Z,5.20
2018-10-16T13:59:53.632Z,7.53
2018-10-16T14:02:24.988Z,6.20
2018-10-16T14:04:56.438Z,5.67
2018-10-16T14:07:27.860Z,8.30
2018-10-16T14:09:59.206Z,6.17
2018-10-16T14:12:30.680Z,5.77
2018-10-16T14:15:02.038Z,7.83
2018-10-16T14:17:33.925Z,5.75
2018-10-16T14:20:05.287Z,5.23
2018-10-16T14:22:37.458Z,8.40
2018-10-16T14:25:10.548Z,10.03
2018-10-16T14:27:42.983Z,5.47
2018-10-16T14:30:15.680Z,8.90
2018-10-16T14:32:47.017Z,5.83
2018-10-16T14:35:18.373Z,6.87
2018-10-16T14:37:49.976Z,7.00
2018-10-16T14:40:21.651Z,7.03
2018-10-16T14:42:53.715Z,6.13
2018-10-16T14:45:25.258Z,6.53
2018-10-16T14:47:56.843Z,6.10
2018-10-16T14:50:28.255Z,6.00
2018-10-16T14:53:00.098Z,6.27
2018-10-16T14:55:31.312Z,9.03
2018-10-16T14:58:02.691Z,7.00
2018-10-16T15:00:33.954Z,6.97
2018-10-16T15:03:05.443Z,5.07
2018-10-16T15:05:37.024Z,6.80
2018-10-16T15:08:08.514Z,7.13
2018-10-16T15:10:39.826Z,5.80
2018-10-16T15:13:15.294Z,9.53
2018-10-16T15:15:46.777Z,6.97
2018-10-16T15:18:18.102Z,5.87
2018-10-16T15:20:49.401Z,9.13
2018-10-16T15:23:23.304Z,4.53
2018-10-16T15:25:54.711Z,6.87
2018-10-16T15:28:26.019Z,8.17
2018-10-16T15:30:58.099Z,10.20
2018-10-16T15:33:31.956Z,7.70
2018-10-16T15:36:04.335Z,8.77
2018-10-16T15:38:41.297Z,7.20
2018-10-16T15:41:14.133Z,6.87
2018-10-16T15:43:48.877Z,6.63
2018-10-16T15:46:21.360Z,7.20
2018-10-16T15:48:53.982Z,8.13
2018-10-16T15:51:25.239Z,6.70
2018-10-16T15:53:57.364Z,7.53
2018-10-16T15:56:28.663Z,6.70
2018-10-16T15:59:00.021Z,7.27
2018-10-16T16:01:31.748Z,8.57
2018-10-16T16:04:03.159Z,6.83
2018-10-16T16:06:34.788Z,9.53
2018-10-16T16:09:07.263Z,6.50
2018-10-16T16:11:39.271Z,6.77
2018-10-16T16:14:10.663Z,8.97
2018-10-16T16:16:42.320Z,7.00
2018-10-16T16:19:13.629Z,6.83
2018-10-16T16:21:44.924Z,6.50
2018-10-16T16:24:16.333Z,5.77
2018-10-16T16:26:47.572Z,7.83
2018-10-16T16:29:19.060Z,9.57
2018-10-16T16:31:51.040Z,8.80
2018-10-16T16:34:22.400Z,6.87
2018-10-16T16:36:54.124Z,7.50
2018-10-16T16:39:25.907Z,8.90
2018-10-16T16:41:57.812Z,5.80
2018-10-16T16:44:29.621Z,8.87
2018-10-16T16:47:01.000Z,8.70
2018-10-16T16:49:32.592Z,6.60
2018-10-16T16:52:03.947Z,9.23
2018-10-16T16:54:35.686Z,7.77
2018-10-16T16:57:07.386Z,9.63
2018-10-16T16:59:39.204Z,7.87
2018-10-16T17:02:11.042Z,7.87
2018-10-16T17:04:42.361Z,6.77
2018-10-16T17:07:13.670Z,8.23
2018-10-16T17:09:45.141Z,8.40
2018-10-16T17:12:16.649Z,10.23
2018-10-16T17:14:47.974Z,12.17
2018-10-16T17:17:19.333Z,8.17
2018-10-16T17:19:50.907Z,9.70
2018-10-16T17:22:22.505Z,8.53
2018-10-16T17:24:54.047Z,9.40
2018-10-16T17:27:25.968Z,9.07
2018-10-16T17:29:57.826Z,8.97
2018-10-16T17:32:29.159Z,8.60
2018-10-16T17:35:01.457Z,8.03
2018-10-16T17:37:33.467Z,9.87
2018-10-16T17:40:04.906Z,9.67
2018-10-16T17:42:36.246Z,10.93
2018-10-16T17:45:08.681Z,9.90
2018-10-16T17:47:39.888Z,8.17
2018-10-16T17:50:14.259Z,9.77
2018-10-16T17:52:45.560Z,9.67
2018-10-16T17:55:17.458Z,8.67
2018-10-16T17:57:48.825Z,10.07
2018-10-16T18:00:20.838Z,10.37
2018-10-16T18:02:52.300Z,11.63
2018-10-16T18:05:23.604Z,9.10
2018-10-16T18:07:55.768Z,10.20
2018-10-16T18:10:27.174Z,15.63
2018-10-16T18:12:59.844Z,10.77
2018-10-16T18:15:31.702Z,9.80
2018-10-16T18:18:03.840Z,10.83
2018-10-16T18:20:37.237Z,18.03
2018-10-16T18:23:09.504Z,14.03
2018-10-16T18:25:42.081Z,11.47
2018-10-16T18:28:14.131Z,12.80
2018-10-16T18:30:46.288Z,13.90
2018-10-16T18:33:19.171Z,12.67
2018-10-16T18:35:51.258Z,13.30
2018-10-16T18:38:23.371Z,13.60
2018-10-16T18:40:55.608Z,11.97
2018-10-16T18:43:28.212Z,15.13
2018-10-16T18:46:01.202Z,13.30
2018-10-16T18:48:33.943Z,15.53
2018-10-16T18:51:08.437Z,13.23
2018-10-16T18:53:40.418Z,13.43
2018-10-16T18:56:12.702Z,12.13
2018-10-16T18:58:45.314Z,12.77
2018-10-16T19:01:17.232Z,11.87
2018-10-16T19:03:50.674Z,13.60
2018-10-16T19:06:22.078Z,14.13
2018-10-16T19:08:54.145Z,13.50
2018-10-16T19:11:26.381Z,14.83
2018-10-16T19:13:58.946Z,14.23
2018-10-16T19:16:31.019Z,13.13
2018-10-16T19:19:03.207Z,13.60
2018-10-16T19:21:35.110Z,11.27
2018-10-16T19:24:06.866Z,11.60
2018-10-16T19:26:39.546Z,13.13
2018-10-16T19:29:11.915Z,13.43
2018-10-16T19:31:44.944Z,11.13
2018-10-16T19:34:16.875Z,13.50
2018-10-16T19:36:50.784Z,12.93
2018-10-16T19:39:22.648Z,15.00
2018-10-16T19:41:54.547Z,13.50
2018-10-16T19:44:26.501Z,14.27
2018-10-16T19:46:58.966Z,14.50
2018-10-16T19:49:30.621Z,13.87
2018-10-16T19:52:02.353Z,13.67
2018-10-16T19:54:34.957Z,15.27
2018-10-16T19:57:07.637Z,13.73
2018-10-16T19:59:39.966Z,15.77
2018-10-16T20:02:11.623Z,13.90
2018-10-16T20:04:44.257Z,14.23
2018-10-16T20:07:16.454Z,13.17
2018-10-16T20:09:48.749Z,13.63
2018-10-16T20:12:21.015Z,16.57
2018-10-16T20:14:53.510Z,18.17
2018-10-16T20:17:26.297Z,15.00
2018-10-16T20:19:58.931Z,16.80
2018-10-16T20:22:31.666Z,20.97
2018-10-16T20:25:06.999Z,23.03
2018-10-16T20:27:39.930Z,20.77
2018-10-16T20:30:13.201Z,18.87
2018-10-16T20:32:48.242Z,21.60
2018-10-16T20:35:20.905Z,19.70
2018-10-16T20:37:53.191Z,19.00
2018-10-16T20:40:25.595Z,19.53
2018-10-16T20:42:58.019Z,17.10
2018-10-16T20:45:30.558Z,14.10
2018-10-16T20:48:02.772Z,15.43
2018-10-16T20:50:38.090Z,14.27
2018-10-16T20:53:10.160Z,11.83
2018-10-16T20:55:51.442Z,12.93
2018-10-16T20:58:23.519Z,13.43
2018-10-16T21:00:56.182Z,16.90
2018-10-16T21:03:28.237Z,12.03
2018-10-16T21:06:00.778Z,15.73
2018-10-16T21:08:32.580Z,14.57
2018-10-16T21:11:04.828Z,15.53
2018-10-16T21:13:37.514Z,15.07
2018-10-16T21:16:09.680Z,11.70
2018-10-16T21:18:42.118Z,13.20
2018-10-16T21:21:13.861Z,14.50
2018-10-16T21:23:57.087Z,13.10
2018-10-16T21:26:18.613Z,14.33
2018-10-16T21:28:50.699Z,12.10
2018-10-16T21:31:23.621Z,10.97
2018-10-16T21:33:55.778Z,13.87
2018-10-16T21:36:27.842Z,13.03
2018-10-16T22:10:35.980Z,11.70
2018-10-16T23:16:16.108Z,11.63
2018-10-16T23:57:57.517Z,12.63
